Time;durP1;ratioP1;P1;durP2;ratioP2;P2;SDS_P1;SDS_P2;PMS_P1;PMS_P2;Temp;Humidity;BMP_temperature;BMP_pressure;BME280_temperature;BME280_humidity;BME280_pressure;Samples;Min_cycle;Max_cycle;Signal;HPM_P1;HPM_P2
2021/12/04 00:01:22;;;;;;;;;1.00;0.80;;;;;4.35;79.84;98401.59;5113049;28;8847;-55
2021/12/04 00:03:50;;;;;;;;;1.00;1.00;;;;;4.35;80.24;98396.31;5112630;28;8824;-55
2021/12/04 00:06:22;;;;;;;;;2.60;2.60;;;;;4.33;80.07;98390.34;5113446;28;8843;-55
2021/12/04 00:08:50;;;;;;;;;0.00;0.00;;;;;4.33;80.43;98391.16;5111507;28;8983;-55
2021/12/04 00:11:18;;;;;;;;;3.00;1.00;;;;;4.33;80.07;98379.81;5113224;28;8824;-55
2021/12/04 00:13:46;;;;;;;;;0.80;0.40;;;;;4.34;80.19;98381.47;5108704;28;8822;-56
2021/12/04 00:16:14;;;;;;;;;0.60;0.60;;;;;4.32;79.90;98386.88;5105326;28;8840;-55
2021/12/04 00:18:42;;;;;;;;;3.00;3.00;;;;;4.31;80.68;98371.16;5113328;28;8835;-55
2021/12/04 00:21:09;;;;;;;;;1.00;1.00;;;;;4.31;80.32;98371.16;5114509;28;8832;-55
2021/12/04 00:23:38;;;;;;;;;1.00;1.00;;;;;4.29;80.69;98358.16;5113888;28;8847;-55
2021/12/04 00:26:05;;;;;;;;;1.00;1.00;;;;;4.31;80.77;98373.81;5112904;28;8836;-55
2021/12/04 00:28:33;;;;;;;;;0.60;0.20;;;;;4.32;80.24;98364.94;5112962;28;8832;-55
2021/12/04 00:31:06;;;;;;;;;1.00;1.00;;;;;4.34;80.74;98368.31;5113366;28;8867;-55
2021/12/04 00:33:36;;;;;;;;;1.80;0.60;;;;;4.35;80.47;98355.00;5112503;28;8835;-55
2021/12/04 00:36:07;;;;;;;;;3.00;0.00;;;;;4.37;80.22;98360.16;5113567;28;8966;-55
2021/12/04 00:49:31;;;;;;;;;0.00;0.00;;;;;4.39;80.42;98331.88;5092756;28;9510;-55
2021/12/04 00:51:59;;;;;;;;;1.00;1.00;;;;;4.38;80.77;98330.19;5093039;28;8860;-55
2021/12/04 00:54:27;;;;;;;;;2.60;2.20;;;;;4.39;80.30;98326.59;5092945;28;8984;-55
2021/12/04 00:56:55;;;;;;;;;1.00;0.60;;;;;4.40;80.94;98329.13;5092379;28;8841;-55
2021/12/04 00:59:22;;;;;;;;;1.00;1.00;;;;;4.42;80.69;98331.66;5092810;28;8853;-55
2021/12/04 01:01:51;;;;;;;;;1.00;1.00;;;;;4.44;80.15;98330.56;5092617;28;8836;-55
2021/12/04 01:04:18;;;;;;;;;0.00;0.00;;;;;4.46;80.52;98335.69;5092639;28;8849;-55
2021/12/04 01:06:46;;;;;;;;;1.40;1.40;;;;;4.48;80.54;98331.16;5092216;28;8854;-55
2021/12/04 01:09:14;;;;;;;;;1.40;1.40;;;;;4.49;80.16;98336.28;5091524;28;8850;-54
2021/12/04 01:11:42;;;;;;;;;0.20;0.20;;;;;4.50;80.47;98329.22;5092113;28;8857;-55
2021/12/04 01:14:09;;;;;;;;;1.00;0.80;;;;;4.52;80.36;98329.94;5099808;28;8849;-56
2021/12/04 01:16:37;;;;;;;;;1.00;1.00;;;;;4.52;80.27;98329.94;5113215;28;8847;-55
2021/12/04 01:19:05;;;;;;;;;1.00;0.00;;;;;4.52;80.80;98329.94;5112883;28;8843;-55
2021/12/04 01:21:33;;;;;;;;;2.60;2.60;;;;;4.53;80.37;98324.53;5112379;28;8962;-55
2021/12/04 01:24:01;;;;;;;;;1.00;1.00;;;;;4.53;80.49;98321.91;5112866;28;9470;-54
2021/12/04 01:26:28;;;;;;;;;1.40;1.40;;;;;4.54;80.53;98317.47;5112290;28;8819;-56
2021/12/04 01:28:56;;;;;;;;;1.40;1.00;;;;;4.55;80.40;98309.44;5112522;28;8824;-54
2021/12/04 01:31:24;;;;;;;;;2.20;2.20;;;;;4.55;80.33;98303.31;5112305;28;8850;-54
2021/12/04 01:33:52;;;;;;;;;2.60;1.40;;;;;4.56;80.20;98307.66;5111553;28;8844;-55
2021/12/04 01:36:20;;;;;;;;;1.00;1.00;;;;;4.56;80.77;98297.13;5113298;28;8956;-55
2021/12/04 01:38:47;;;;;;;;;1.40;1.40;;;;;4.57;80.72;98294.31;5111872;28;8904;-55
2021/12/04 01:41:15;;;;;;;;;1.00;0.00;;;;;4.59;80.28;98295.06;5111900;28;9184;-55
2021/12/04 01:43:43;;;;;;;;;1.00;1.00;;;;;4.60;80.70;98302.00;5105944;28;8972;-55
2021/12/04 01:46:11;;;;;;;;;2.60;2.60;;;;;4.62;80.42;98284.25;5092151;28;8877;-55
2021/12/04 01:48:38;;;;;;;;;0.00;0.00;;;;;4.63;80.39;98285.94;5092028;28;9488;-55
2021/12/04 01:51:06;;;;;;;;;3.00;3.00;;;;;4.65;80.36;98285.81;5091546;28;8822;-55
2021/12/04 01:53:34;;;;;;;;;2.20;1.00;;;;;4.66;80.77;98287.47;5092533;28;9659;-54
2021/12/04 01:56:02;;;;;;;;;1.00;1.00;;;;;4.66;80.46;98279.56;5091965;28;9262;-55
2021/12/04 01:58:29;;;;;;;;;1.00;1.00;;;;;4.67;80.24;98284.72;5091960;28;8981;-55
2021/12/04 02:00:57;;;;;;;;;1.40;1.40;;;;;4.69;80.15;98276.66;5092192;28;8970;-55
2021/12/04 02:03:25;;;;;;;;;1.00;1.00;;;;;4.69;80.51;98277.53;5091796;28;8830;-55
2021/12/04 02:05:53;;;;;;;;;3.40;2.40;;;;;4.71;80.42;98282.69;5091806;28;8984;-54
2021/12/04 02:08:21;;;;;;;;;1.00;1.00;;;;;4.72;80.32;98281.72;5090512;28;8856;-55
2021/12/04 02:10:49;;;;;;;;;0.80;0.00;;;;;4.73;79.94;98270.19;5092042;28;8854;-55
2021/12/04 02:13:17;;;;;;;;;3.00;3.00;;;;;4.72;80.68;98279.88;5094360;28;8857;-55
2021/12/04 02:15:45;;;;;;;;;1.00;0.40;;;;;4.72;80.44;98264.06;5111385;28;8871;-55
2021/12/04 02:18:12;;;;;;;;;3.00;3.00;;;;;4.72;80.84;98266.72;5111495;28;8847;-54
2021/12/04 02:20:40;;;;;;;;;0.80;0.00;;;;;4.73;80.43;98267.56;5112221;28;8820;-55
2021/12/04 02:23:08;;;;;;;;;1.00;1.00;;;;;4.71;80.73;98266.84;5111937;28;8970;-55
2021/12/04 02:25:36;;;;;;;;;3.00;3.00;;;;;4.71;80.67;98258.94;5111809;28;8836;-55
2021/12/04 02:28:03;;;;;;;;;1.00;1.00;;;;;4.71;80.13;98258.94;5110546;28;8912;-55
2021/12/04 02:30:32;;;;;;;;;3.00;0.20;;;;;4.71;80.42;98253.69;5111661;28;8855;-54
2021/12/04 02:32:59;;;;;;;;;1.00;1.00;;;;;4.71;80.54;98253.69;5112021;28;8869;-55
2021/12/04 02:35:27;;;;;;;;;0.80;0.80;;;;;4.70;80.45;98252.81;5112627;28;8847;-54
2021/12/04 02:37:55;;;;;;;;;1.40;1.40;;;;;4.71;80.59;98251.03;5115114;28;8950;-54
2021/12/04 02:40:23;;;;;;;;;0.40;0.40;;;;;4.71;80.50;98249.22;5114680;28;8840;-54
2021/12/04 02:42:51;;;;;;;;;1.00;1.00;;;;;4.71;80.81;98243.13;5116490;28;8835;-55
2021/12/04 02:45:18;;;;;;;;;3.00;3.00;;;;;4.71;80.78;98251.03;5095683;28;8876;-55
2021/12/04 02:47:46;;;;;;;;;1.00;1.00;;;;;4.70;81.02;98252.81;5095945;28;8834;-55
2021/12/04 02:50:14;;;;;;;;;3.00;2.20;;;;;4.70;80.45;98237.00;5095199;28;8852;-55
2021/12/04 02:52:42;;;;;;;;;1.00;1.00;;;;;4.70;80.65;98231.75;5096252;28;8972;-55
2021/12/04 02:55:09;;;;;;;;;2.60;1.00;;;;;4.71;80.55;98232.59;5094761;28;8968;-54
2021/12/04 02:57:41;;;;;;;;;1.00;1.00;;;;;4.71;80.32;98232.59;5094659;28;9932;-55
2021/12/04 03:00:10;;;;;;;;;0.00;0.00;;;;;4.71;80.79;98224.69;5094848;28;9524;-55
2021/12/04 03:02:38;;;;;;;;;0.60;0.60;;;;;4.71;80.87;98229.94;5094760;28;8849;-54
2021/12/04 03:05:09;;;;;;;;;1.80;1.80;;;;;4.70;80.85;98226.47;5095172;28;8850;-55
2021/12/04 03:07:36;;;;;;;;;0.80;0.80;;;;;4.71;80.59;98228.13;5095095;28;8988;-54
2021/12/04 03:10:04;;;;;;;;;1.00;1.00;;;;;4.73;80.73;98230.66;5095680;28;8849;-55
2021/12/04 03:12:32;;;;;;;;;1.00;0.40;;;;;4.73;80.82;98212.19;5095765;28;8822;-55
2021/12/04 03:15:00;;;;;;;;;1.80;0.80;;;;;4.73;80.42;98210.38;5095343;28;8917;-55
2021/12/04 03:17:27;;;;;;;;;0.40;0.40;;;;;4.74;80.69;98205.97;5094134;28;8849;-55
2021/12/04 03:19:55;;;;;;;;;3.40;3.40;;;;;4.74;80.90;98190.13;5094912;28;8857;-55
2021/12/04 03:22:24;;;;;;;;;3.00;3.00;;;;;4.74;80.91;98187.50;5094327;28;8971;-55
2021/12/04 03:24:52;;;;;;;;;0.20;0.20;;;;;4.74;80.72;98176.97;5094218;28;8834;-55
2021/12/04 03:27:20;;;;;;;;;1.00;1.00;;;;;4.73;80.43;98178.75;5092841;28;8849;-55
2021/12/04 03:29:52;;;;;;;;;2.60;1.00;;;;;4.73;80.73;98177.94;5094089;28;8861;-55
2021/12/04 03:35:21;;;;;;;;;2.60;1.80;;;;;4.74;80.99;98166.41;5094839;28;9650;-55
2021/12/04 03:40:38;;;;;;;;;3.00;1.80;;;;;4.76;80.99;98161.84;5102182;28;8844;-54
2021/12/04 03:43:06;;;;;;;;;1.00;1.00;;;;;4.75;80.99;98155.75;5114689;28;8840;-55
2021/12/04 03:45:35;;;;;;;;;1.00;1.00;;;;;4.77;80.76;98153.81;5114969;28;8889;-55
2021/12/04 03:48:09;;;;;;;;;1.00;1.00;;;;;4.78;80.95;98149.38;5113774;28;8840;-55
2021/12/04 03:50:37;;;;;;;;;1.00;1.00;;;;;4.79;80.91;98149.25;5115151;28;8816;-55
2021/12/04 03:53:05;;;;;;;;;2.60;1.00;;;;;4.79;80.85;98141.31;5114172;28;8865;-55
2021/12/04 03:55:34;;;;;;;;;0.00;0.00;;;;;4.80;80.85;98137.72;5114576;28;9481;-55
2021/12/04 03:58:02;;;;;;;;;0.80;0.80;;;;;4.81;80.90;98134.16;5113718;28;8936;-55
2021/12/04 04:00:29;;;;;;;;;0.40;0.40;;;;;4.82;80.93;98124.41;5113560;28;8836;-55
2021/12/04 04:02:58;;;;;;;;;2.20;2.20;;;;;4.82;80.74;98124.41;5114857;28;8978;-55
2021/12/04 04:05:27;;;;;;;;;0.00;0.00;;;;;4.82;80.74;98122.63;5113548;28;8854;-55
2021/12/04 04:07:55;;;;;;;;;1.00;1.00;;;;;4.83;80.64;98121.66;5114156;28;8827;-54
2021/12/04 04:10:22;;;;;;;;;1.00;1.00;;;;;4.85;80.87;98129.41;5106325;28;8845;-55
2021/12/04 04:12:50;;;;;;;;;3.60;2.60;;;;;4.85;80.86;98129.41;5093872;28;8849;-54
2021/12/04 04:15:17;;;;;;;;;0.80;0.80;;;;;4.86;80.78;98123.19;5093829;28;8880;-54
2021/12/04 04:17:45;;;;;;;;;0.00;0.00;;;;;4.87;80.88;98130.16;5093553;28;8854;-55
2021/12/04 04:20:13;;;;;;;;;0.20;0.20;;;;;4.88;80.41;98126.53;5093692;28;8830;-55
2021/12/04 04:22:41;;;;;;;;;0.00;0.00;;;;;4.88;80.54;98131.81;5093674;28;9536;-55
2021/12/04 04:25:09;;;;;;;;;0.00;0.00;;;;;4.88;80.78;98130.00;5092947;28;8830;-55
2021/12/04 04:27:36;;;;;;;;;1.00;1.00;;;;;4.89;80.96;98136.09;5093659;28;8841;-54
2021/12/04 04:30:04;;;;;;;;;0.00;0.00;;;;;4.89;80.57;98130.84;5092977;28;8903;-54
2021/12/04 04:32:32;;;;;;;;;0.00;0.00;;;;;4.90;80.88;98124.59;5093021;28;8864;-55
2021/12/04 04:35:08;;;;;;;;;0.60;0.60;;;;;4.91;80.44;98124.47;5093754;28;8850;-55
2021/12/04 04:37:41;;;;;;;;;0.80;0.20;;;;;4.92;80.60;98114.75;5093245;28;8858;-54
2021/12/04 04:40:30;;;;;;;;;1.00;0.40;;;;;4.94;80.85;98112.84;5096260;28;8956;-55
2021/12/04 04:59:39;;;;;;;;;1.00;0.60;;;;;4.91;80.70;98108.66;5112057;28;8890;-54
2021/12/04 05:10:39;;;;;;;;;0.20;0.00;;;;;4.89;81.23;98099.19;5106036;28;8841;-55
2021/12/04 05:13:08;;;;;;;;;0.00;0.00;;;;;4.88;80.63;98086.97;5092556;28;8845;-54
2021/12/04 05:15:40;;;;;;;;;0.40;0.40;;;;;4.89;80.44;98088.66;5107578;28;8872;-55
2021/12/04 05:18:20;;;;;;;;;0.00;0.00;;;;;4.89;80.79;98088.66;5112618;28;8832;-55
2021/12/04 05:20:52;;;;;;;;;0.00;0.00;;;;;4.90;80.68;98090.31;5112885;28;8846;-55
2021/12/04 05:23:20;;;;;;;;;0.00;0.00;;;;;4.89;81.15;98089.50;5112958;28;8831;-55
2021/12/04 05:25:48;;;;;;;;;0.00;0.00;;;;;4.90;81.37;98091.16;5111905;28;8960;-55
2021/12/04 05:28:16;;;;;;;;;0.00;0.00;;;;;4.89;80.74;98086.00;5112517;28;8836;-55
2021/12/04 05:30:43;;;;;;;;;2.20;1.00;;;;;4.88;80.88;98087.81;5111204;28;8824;-55
2021/12/04 05:33:11;;;;;;;;;0.00;0.00;;;;;4.87;80.82;98080.03;5111192;28;9505;-55
2021/12/04 05:35:39;;;;;;;;;2.20;2.20;;;;;4.87;80.79;98082.69;5111965;28;8836;-55
2021/12/04 05:38:07;;;;;;;;;0.20;0.00;;;;;4.84;80.79;98067.09;5112437;28;8905;-54
2021/12/04 05:40:35;;;;;;;;;1.00;0.40;;;;;4.80;80.74;98069.16;5111172;28;9576;-55
2021/12/04 05:43:03;;;;;;;;;1.00;1.00;;;;;4.78;81.34;98070.31;5111939;28;8855;-55
2021/12/04 05:45:32;;;;;;;;;1.00;1.00;;;;;4.76;80.79;98072.22;5094012;28;8919;-56
2021/12/04 05:48:05;;;;;;;;;0.00;0.00;;;;;4.74;81.07;98067.09;5090202;28;9512;-55
2021/12/04 05:51:04;;;;;;;;;0.00;0.00;;;;;4.75;81.02;98071.41;5090643;28;8842;-55
2021/12/04 05:53:41;;;;;;;;;3.40;3.00;;;;;4.76;81.52;98074.84;5090066;28;8850;-55
2021/12/04 05:56:09;;;;;;;;;0.00;0.00;;;;;4.77;81.47;98073.88;5088990;28;8852;-55
2021/12/04 05:58:37;;;;;;;;;0.60;0.60;;;;;4.78;81.04;98067.66;5090978;28;9492;-54
2021/12/04 06:01:05;;;;;;;;;0.60;0.60;;;;;4.78;80.86;98078.22;5089402;28;8858;-55
2021/12/04 06:03:33;;;;;;;;;0.80;0.00;;;;;4.79;81.16;98072.78;5090814;28;8842;-55
2021/12/04 06:06:00;;;;;;;;;2.20;1.00;;;;;4.79;81.50;98078.06;5090357;28;8854;-55
2021/12/04 06:08:29;;;;;;;;;0.80;0.20;;;;;4.79;81.04;98077.25;5090119;28;8846;-55
2021/12/04 06:10:57;;;;;;;;;0.00;0.00;;;;;4.77;81.25;98073.88;5103244;28;9446;-55
2021/12/04 06:13:24;;;;;;;;;1.00;1.00;;;;;4.78;81.02;98065.03;5110751;28;8832;-55
2021/12/04 06:15:52;;;;;;;;;1.00;1.00;;;;;4.78;80.85;98070.31;5110217;28;9879;-55
2021/12/04 06:18:21;;;;;;;;;0.20;0.20;;;;;4.78;80.87;98065.84;5109698;28;9518;-55
2021/12/04 06:23:35;;;;;;;;;0.00;0.00;;;;;4.80;81.20;98068.34;5110979;28;8900;-55
2021/12/04 06:26:02;;;;;;;;;1.00;1.00;;;;;4.80;81.35;98071.81;5111117;28;8850;-55
2021/12/04 06:28:30;;;;;;;;;2.20;1.00;;;;;4.79;81.37;98067.50;5111248;28;8851;-54
2021/12/04 06:30:59;;;;;;;;;2.20;2.20;;;;;4.79;80.76;98069.34;5111284;28;8847;-54
2021/12/04 06:33:27;;;;;;;;;0.80;0.40;;;;;4.79;81.66;98058.78;5110876;28;9490;-55
2021/12/04 06:35:55;;;;;;;;;1.00;1.00;;;;;4.79;81.70;98061.41;5111961;28;8843;-55
2021/12/04 06:38:23;;;;;;;;;1.00;1.00;;;;;4.79;81.62;98053.50;5110506;28;9839;-55
2021/12/04 06:40:51;;;;;;;;;1.40;1.00;;;;;4.79;81.21;98061.41;5097608;28;8830;-55
2021/12/04 06:43:19;;;;;;;;;0.40;0.40;;;;;4.79;81.53;98056.97;5090782;28;8840;-54
2021/12/04 06:45:56;;;;;;;;;1.00;1.00;;;;;4.80;81.32;98063.09;5090281;28;8866;-55
2021/12/04 06:48:27;;;;;;;;;1.00;1.00;;;;;4.80;81.06;98065.72;5089905;28;8869;-55
2021/12/04 06:50:58;;;;;;;;;1.40;1.00;;;;;4.81;81.47;98067.38;5090262;28;8838;-55
2021/12/04 06:53:30;;;;;;;;;2.60;1.00;;;;;4.81;81.39;98065.59;5088825;28;8854;-54
2021/12/04 06:56:00;;;;;;;;;1.80;1.00;;;;;4.81;81.43;98062.13;5088342;28;8838;-55
2021/12/04 06:58:28;;;;;;;;;1.80;1.80;;;;;4.82;81.44;98050.59;5089363;28;8837;-54
2021/12/04 07:00:57;;;;;;;;;1.00;1.00;;;;;4.82;81.40;98047.97;5089929;28;8876;-55
2021/12/04 07:03:25;;;;;;;;;1.00;0.60;;;;;4.81;81.20;98056.84;5090071;28;8912;-55
2021/12/04 07:05:53;;;;;;;;;3.00;3.00;;;;;4.81;81.18;98057.69;5090521;28;8841;-55
2021/12/04 07:08:21;;;;;;;;;2.20;2.20;;;;;4.80;81.17;98058.63;5088505;28;8877;-55
2021/12/04 07:10:50;;;;;;;;;1.00;0.20;;;;;4.80;81.11;98050.72;5102603;28;8828;-55
2021/12/04 07:13:18;;;;;;;;;2.80;1.80;;;;;4.78;81.56;98047.38;5110492;28;8986;-55
2021/12/04 07:15:46;;;;;;;;;0.40;0.40;;;;;4.79;81.21;98061.41;5108509;28;8883;-55
2021/12/04 07:18:14;;;;;;;;;1.00;1.00;;;;;4.77;82.04;98058.91;5109331;28;8839;-55
2021/12/04 07:20:41;;;;;;;;;1.80;1.80;;;;;4.76;81.21;98054.59;5109554;28;8866;-55
2021/12/04 07:23:10;;;;;;;;;2.20;1.40;;;;;4.76;81.33;98051.97;5111034;28;8966;-55
2021/12/04 07:25:37;;;;;;;;;1.40;1.40;;;;;4.77;81.76;98051.00;5113618;28;8831;-55
2021/12/04 07:28:05;;;;;;;;;1.00;1.00;;;;;4.78;81.39;98052.66;5112788;28;8839;-54
2021/12/04 07:30:33;;;;;;;;;3.00;3.00;;;;;4.79;81.81;98051.69;5112611;28;8843;-55
2021/12/04 07:33:01;;;;;;;;;3.40;3.00;;;;;4.79;81.68;98045.59;5112893;28;8874;-55
2021/12/04 07:35:28;;;;;;;;;3.40;3.00;;;;;4.81;81.50;98043.66;5112291;28;8843;-55
2021/12/04 07:37:56;;;;;;;;;0.60;0.60;;;;;4.83;81.53;98044.34;5112568;28;8855;-55
2021/12/04 07:40:24;;;;;;;;;1.00;1.00;;;;;4.84;81.55;98038.09;5106681;28;8955;-56
2021/12/04 07:42:52;;;;;;;;;2.20;1.80;;;;;4.86;81.91;98038.84;5112835;28;8843;-56
2021/12/04 07:45:19;;;;;;;;;0.00;0.00;;;;;4.86;81.76;98031.75;5112842;28;8847;-55
2021/12/04 07:47:47;;;;;;;;;3.40;3.00;;;;;4.87;81.65;98037.84;5113181;28;8874;-55
2021/12/04 07:50:15;;;;;;;;;3.00;2.20;;;;;4.88;81.52;98042.97;5111202;28;8843;-55
2021/12/04 07:52:43;;;;;;;;;1.00;0.00;;;;;4.90;81.19;98042.84;5111502;28;8946;-55
2021/12/04 07:55:11;;;;;;;;;3.60;3.60;;;;;4.90;81.20;98054.25;5112250;28;8978;-55
2021/12/04 07:57:38;;;;;;;;;1.00;1.00;;;;;4.89;81.45;98049.94;5111846;28;8971;-55
2021/12/04 08:00:06;;;;;;;;;0.80;0.80;;;;;4.89;81.74;98052.59;5112353;28;8840;-55
2021/12/04 08:02:34;;;;;;;;;3.00;3.00;;;;;4.89;81.05;98049.09;5107292;28;8865;-55
2021/12/04 08:05:02;;;;;;;;;2.60;2.60;;;;;4.91;81.31;98049.78;5108991;28;8850;-55
2021/12/04 08:07:30;;;;;;;;;1.00;1.00;;;;;4.93;81.49;98045.25;5110307;28;8828;-55
2021/12/04 08:09:58;;;;;;;;;1.80;0.80;;;;;4.95;81.24;98038.84;5102233;28;8923;-55
2021/12/04 08:12:25;;;;;;;;;1.00;1.00;;;;;4.96;81.25;98037.06;5088832;28;8826;-55
2021/12/04 08:14:54;;;;;;;;;2.60;1.00;;;;;4.97;81.40;98033.44;5089128;28;9532;-54
2021/12/04 08:17:21;;;;;;;;;2.20;1.00;;;;;4.99;81.52;98031.50;5089620;28;8838;-55
2021/12/04 08:19:49;;;;;;;;;3.00;1.00;;;;;5.01;81.64;98030.41;5089133;28;8833;-55
2021/12/04 08:22:17;;;;;;;;;3.20;2.60;;;;;5.03;81.22;98043.47;5090313;28;8860;-55
2021/12/04 08:24:47;;;;;;;;;1.00;1.00;;;;;5.05;81.29;98046.78;5087931;28;8843;-55
2021/12/04 08:27:14;;;;;;;;;0.20;0.20;;;;;5.05;81.13;98041.50;5087507;28;8838;-55
2021/12/04 08:29:42;;;;;;;;;1.00;1.00;;;;;5.06;81.40;98051.94;5086585;28;8842;-55
2021/12/04 08:32:10;;;;;;;;;1.00;1.00;;;;;5.06;81.36;98045.81;5086312;28;8855;-55
2021/12/04 08:34:38;;;;;;;;;2.80;2.80;;;;;5.03;81.35;98043.47;5089182;28;9286;-55
2021/12/04 08:37:05;;;;;;;;;3.40;2.60;;;;;5.03;81.50;98043.47;5088481;28;8853;-55
2021/12/04 08:39:33;;;;;;;;;3.00;1.80;;;;;5.04;81.33;98045.97;5092703;28;8828;-55
2021/12/04 08:42:01;;;;;;;;;2.20;2.20;;;;;5.04;81.80;98048.59;5106759;28;8860;-54
2021/12/04 08:44:29;;;;;;;;;1.00;1.00;;;;;5.06;81.48;98032.63;5105366;28;8844;-55
2021/12/04 08:46:57;;;;;;;;;4.00;3.00;;;;;5.10;81.56;98029.59;5108049;28;8853;-55
2021/12/04 08:49:25;;;;;;;;;2.60;1.80;;;;;5.16;81.54;98028.22;5108224;28;8852;-55
2021/12/04 08:51:53;;;;;;;;;3.60;3.00;;;;;5.21;81.45;98029.47;5107921;28;8831;-55
2021/12/04 08:54:20;;;;;;;;;2.60;2.60;;;;;5.25;81.36;98028.22;5105745;28;8853;-55
2021/12/04 08:56:48;;;;;;;;;1.00;1.00;;;;;5.30;81.41;98022.53;5105199;28;8901;-55
2021/12/04 08:59:16;;;;;;;;;0.40;0.40;;;;;5.33;80.61;98015.19;5106794;28;8839;-55
2021/12/04 09:01:44;;;;;;;;;2.60;1.00;;;;;5.37;80.95;98027.16;5105583;28;8840;-55
2021/12/04 09:04:12;;;;;;;;;3.00;2.20;;;;;5.39;81.24;98019.91;5107450;28;8870;-55
2021/12/04 09:06:39;;;;;;;;;3.00;3.00;;;;;5.43;80.92;98020.47;5105509;28;8839;-55
2021/12/04 09:09:07;;;;;;;;;3.00;3.00;;;;;5.46;81.11;98012.31;5105323;28;9551;-55
2021/12/04 09:11:35;;;;;;;;;1.40;1.00;;;;;5.52;80.93;98025.78;5087467;28;8833;-55
2021/12/04 09:14:02;;;;;;;;;4.00;3.20;;;;;5.58;80.95;98024.38;5088415;28;8842;-56
2021/12/04 09:16:30;;;;;;;;;3.00;3.00;;;;;5.63;80.85;98016.88;5086983;28;8877;-56
2021/12/04 09:18:58;;;;;;;;;1.40;1.00;;;;;5.69;80.83;98021.63;5086893;28;8818;-55
2021/12/04 09:21:27;;;;;;;;;1.80;1.80;;;;;5.69;80.38;98013.69;5088714;28;8867;-55
2021/12/04 09:24:03;;;;;;;;;0.60;0.60;;;;;5.71;80.39;98014.38;5086960;28;8968;-55
2021/12/04 09:26:39;;;;;;;;;3.80;0.60;;;;;5.74;80.19;98014.09;5085282;28;8857;-55
2021/12/04 09:29:20;;;;;;;;;1.00;1.00;;;;;5.78;80.54;98002.28;5084892;28;8972;-56
2021/12/04 09:32:19;;;;;;;;;1.00;1.00;;;;;5.83;80.53;98008.00;5085547;28;8896;-55
2021/12/04 09:59:58;;;;;;;;;1.00;1.00;;;;;5.96;80.07;97987.44;5075150;28;8855;-55
2021/12/04 10:02:35;;;;;;;;;1.80;1.80;;;;;6.00;80.20;97983.53;5105508;28;8858;-55
2021/12/04 10:05:20;;;;;;;;;1.80;1.00;;;;;6.04;79.99;97979.63;5104691;28;8982;-55
2021/12/04 10:13:39;;;;;;;;;1.00;0.00;;;;;6.16;79.83;97971.38;5106237;28;8844;-55
2021/12/04 10:19:12;;;;;;;;;1.40;0.20;;;;;6.21;79.69;97952.50;5076713;28;8864;-55
2021/12/04 10:21:47;;;;;;;;;0.40;0.40;;;;;6.25;79.44;97938.00;5104497;28;8906;-55
2021/12/04 10:32:42;;;;;;;;;2.20;1.80;;;;;6.71;78.77;97916.78;5084350;28;8862;-55
2021/12/04 10:35:10;;;;;;;;;3.00;3.00;;;;;6.70;78.80;97910.66;5082887;28;8842;-56
2021/12/04 10:37:38;;;;;;;;;1.80;1.80;;;;;6.70;78.82;97909.81;5083969;28;8915;-55
2021/12/04 10:40:06;;;;;;;;;0.20;0.20;;;;;6.68;79.29;97903.84;5081586;28;8868;-55
2021/12/04 10:42:39;;;;;;;;;1.40;1.40;;;;;6.70;79.27;97893.94;5083723;28;9007;-55
2021/12/04 10:45:07;;;;;;;;;0.25;0.25;;;;;6.72;79.60;97899.91;5083837;28;8871;-55
2021/12/04 10:47:35;;;;;;;;;0.00;0.00;;;;;6.76;78.96;97893.38;5083408;28;8964;-55
2021/12/04 10:50:10;;;;;;;;;1.00;1.00;;;;;6.80;79.08;97892.91;5088783;28;8946;-55
2021/12/04 10:52:47;;;;;;;;;1.40;1.00;;;;;6.81;78.95;97880.53;5101231;28;8843;-55
2021/12/04 10:55:16;;;;;;;;;1.00;1.00;;;;;6.82;78.87;97872.44;5101176;28;8836;-56
2021/12/04 11:00:48;;;;;;;;;0.00;0.00;;;;;6.78;79.15;97859.66;5104220;28;8871;-55
2021/12/04 11:03:32;;;;;;;;;0.50;0.25;;;;;6.71;79.06;97866.53;5107866;28;8848;-55
2021/12/04 11:20:41;;;;;;;;;2.20;1.00;;;;;6.54;79.78;97825.84;5083721;28;8874;-55
2021/12/04 11:26:11;;;;;;;;;0.20;0.20;;;;;6.76;79.54;97817.47;5070414;28;8844;-55
2021/12/04 11:37:20;;;;;;;;;1.50;0.75;;;;;6.96;78.91;97794.38;5082127;28;8982;-55
2021/12/04 11:42:39;;;;;;;;;0.50;0.50;;;;;6.91;79.01;97773.66;5075614;28;8868;-55
2021/12/04 11:45:14;;;;;;;;;2.00;1.50;;;;;6.87;79.34;97769.66;5084841;28;8866;-54
2021/12/04 11:47:42;;;;;;;;;1.00;1.00;;;;;6.90;79.25;97763.25;5080887;28;9027;-55
2021/12/04 11:50:10;;;;;;;;;2.00;2.00;;;;;6.94;78.71;97746.91;5092932;28;9882;-55
2021/12/04 11:52:38;;;;;;;;;1.00;1.00;;;;;7.01;79.01;97745.31;5106300;28;8853;-55
2021/12/04 11:55:09;;;;;;;;;0.50;0.50;;;;;7.06;78.41;97732.44;5103405;27;8865;-55
2021/12/04 11:57:37;;;;;;;;;1.50;1.50;;;;;7.07;78.88;97730.63;5105792;28;8830;-55
2021/12/04 12:00:05;;;;;;;;;1.00;1.00;;;;;7.06;78.78;97735.06;5103857;28;9016;-55
2021/12/04 12:02:33;;;;;;;;;1.00;1.00;;;;;7.06;78.92;97721.03;5100794;28;8945;-53
2021/12/04 12:05:01;;;;;;;;;1.00;1.00;;;;;7.06;79.01;97721.03;5102288;28;8848;-54
2021/12/04 12:07:30;;;;;;;;;1.50;1.50;;;;;7.04;78.72;97718.53;5102750;28;8935;-56
2021/12/04 12:09:58;;;;;;;;;2.00;2.00;;;;;7.04;79.04;97720.38;5104279;28;8865;-56
2021/12/04 12:12:26;;;;;;;;;2.50;1.50;;;;;7.01;78.81;97718.00;5101363;28;9141;-54
2021/12/04 12:14:56;;;;;;;;;0.25;0.00;;;;;7.00;79.11;97708.41;5101079;28;8868;-54
2021/12/04 12:17:24;;;;;;;;;1.00;1.00;;;;;6.99;78.97;97698.81;5104830;28;8928;-53
2021/12/04 12:19:52;;;;;;;;;0.00;0.00;;;;;7.01;78.98;97692.41;5102087;28;8952;-53
2021/12/04 12:22:23;;;;;;;;;2.50;1.50;;;;;7.04;78.94;97702.66;5085381;28;8865;-54
2021/12/04 12:25:02;;;;;;;;;2.50;2.50;;;;;7.05;79.00;97698.22;5085264;28;9528;-54
2021/12/04 12:27:36;;;;;;;;;2.60;2.20;;;;;7.05;78.48;97706.97;5083167;28;8870;-54
2021/12/04 12:33:01;;;;;;;;;1.50;0.25;;;;;6.97;79.04;97706.09;5082479;28;8938;-53
2021/12/04 12:38:16;;;;;;;;;0.00;0.00;;;;;6.96;79.24;97699.97;5083268;28;8879;-53
2021/12/04 12:40:45;;;;;;;;;1.00;1.00;;;;;7.00;79.03;97703.13;5081212;28;8858;-54
2021/12/04 12:43:12;;;;;;;;;1.00;1.00;;;;;7.02;79.45;97703.78;5082236;28;9543;-53
2021/12/04 12:45:40;;;;;;;;;0.00;0.00;;;;;7.04;78.89;97696.56;5083302;28;8874;-53
2021/12/04 12:48:08;;;;;;;;;0.25;0.25;;;;;7.05;78.93;97692.91;5084707;28;8860;-54
2021/12/04 12:50:37;;;;;;;;;1.00;1.00;;;;;7.04;79.01;97692.06;5095833;28;8940;-53
2021/12/04 12:53:05;;;;;;;;;0.25;0.25;;;;;7.04;79.26;97683.31;5103524;28;9129;-54
2021/12/04 12:55:35;;;;;;;;;1.40;1.40;;;;;7.05;78.77;97677.03;5105470;28;8873;-54
2021/12/04 12:58:03;;;;;;;;;0.00;0.00;;;;;7.05;79.20;97669.91;5103533;28;9891;-56
2021/12/04 13:11:42;;;;;;;;;1.00;0.25;;;;;7.16;79.15;97642.38;5104833;28;8859;-56
2021/12/04 13:14:10;;;;;;;;;3.00;2.20;;;;;7.19;79.47;97634.13;5102299;28;8871;-56
2021/12/04 13:16:37;;;;;;;;;1.00;1.00;;;;;7.21;78.50;97624.22;5103054;28;8861;-56
2021/12/04 13:19:08;;;;;;;;;3.25;3.25;;;;;7.20;78.58;97615.44;5102710;28;8839;-56
2021/12/04 13:21:36;;;;;;;;;4.00;4.00;;;;;7.20;78.74;97623.38;5101963;28;9230;-56
2021/12/04 13:24:04;;;;;;;;;0.00;0.00;;;;;7.20;78.77;97622.56;5103662;28;9564;-56
2021/12/04 13:26:32;;;;;;;;;3.00;2.50;;;;;7.16;78.60;97615.91;5104092;28;8852;-56
2021/12/04 13:29:00;;;;;;;;;3.00;3.00;;;;;7.11;78.59;97613.75;5101890;28;9924;-55
2021/12/04 13:31:28;;;;;;;;;1.00;1.00;;;;;7.07;79.20;97612.41;5102594;28;8910;-56
2021/12/04 13:33:56;;;;;;;;;1.00;1.00;;;;;7.03;79.25;97600.47;5100464;28;8859;-55
2021/12/04 13:36:24;;;;;;;;;0.50;0.50;;;;;7.03;79.16;97599.63;5105235;28;8852;-55
2021/12/04 13:38:51;;;;;;;;;1.00;0.00;;;;;7.01;79.16;97607.75;5104985;28;8858;-55
2021/12/04 13:41:19;;;;;;;;;1.00;1.00;;;;;7.00;79.31;97603.44;5105371;28;8966;-55
2021/12/04 13:43:47;;;;;;;;;1.00;0.00;;;;;7.01;79.07;97604.25;5105384;28;8844;-55
2021/12/04 13:46:15;;;;;;;;;1.40;1.00;;;;;7.02;79.24;97619.13;5085773;28;8868;-55
2021/12/04 13:48:43;;;;;;;;;1.00;1.00;;;;;7.00;79.11;97626.41;5082628;28;8979;-55
2021/12/04 13:51:10;;;;;;;;;0.67;0.67;;;;;6.97;79.19;97632.03;5083296;28;8834;-55
2021/12/04 13:53:38;;;;;;;;;0.00;0.00;;;;;6.94;79.31;97625.22;5082584;28;8846;-55
2021/12/04 13:56:06;;;;;;;;;0.50;0.50;;;;;6.91;79.21;97616.78;5083214;28;8984;-56
2021/12/04 13:58:33;;;;;;;;;1.80;1.00;;;;;6.88;79.12;97622.34;5081874;28;8860;-55
2021/12/04 14:01:01;;;;;;;;;0.80;0.80;;;;;6.86;79.28;97621.69;5080528;28;8873;-56
2021/12/04 14:03:29;;;;;;;;;1.40;1.40;;;;;6.83;79.49;97622.00;5081459;28;8918;-55
2021/12/04 14:05:56;;;;;;;;;0.00;0.00;;;;;6.79;79.57;97618.84;5082632;28;8883;-56
2021/12/04 14:08:24;;;;;;;;;1.00;1.00;;;;;6.78;79.39;97617.19;5081250;28;8921;-55
2021/12/04 14:10:52;;;;;;;;;1.00;1.00;;;;;6.75;79.79;97611.38;5081645;28;8984;-56
2021/12/04 14:13:20;;;;;;;;;2.00;2.00;;;;;6.75;79.71;97628.06;5081137;28;8864;-56
2021/12/04 14:15:50;;;;;;;;;0.60;0.60;;;;;6.73;79.72;97627.41;5092754;28;8996;-55